createdAt,value
2019-06-26T00:00:18.435Z,25.90
2019-06-26T00:02:45.782Z,25.90
2019-06-26T00:05:12.917Z,25.90
2019-06-26T00:07:39.976Z,25.89
2019-06-26T00:10:07.953Z,25.89
2019-06-26T00:12:37.341Z,25.89
2019-06-26T00:15:04.681Z,25.87
2019-06-26T00:17:31.635Z,25.86
2019-06-26T00:19:58.835Z,25.84
2019-06-26T00:22:25.797Z,25.82
2019-06-26T00:24:52.768Z,25.80
2019-06-26T00:27:23.168Z,25.76
2019-06-26T00:29:50.163Z,25.73
2019-06-26T00:32:17.175Z,25.71
2019-06-26T00:34:44.204Z,25.70
2019-06-26T00:37:11.177Z,25.68
2019-06-26T00:39:38.148Z,25.65
2019-06-26T00:42:08.223Z,25.63
2019-06-26T00:44:35.214Z,25.61
2019-06-26T00:47:02.214Z,25.57
2019-06-26T00:49:32.721Z,25.55
2019-06-26T00:51:59.687Z,25.53
2019-06-26T00:54:26.685Z,25.50
2019-06-26T00:56:53.688Z,25.44
2019-06-26T00:59:20.670Z,25.35
2019-06-26T01:01:47.927Z,25.31
2019-06-26T01:04:19.595Z,25.27
2019-06-26T01:06:46.585Z,25.25
2019-06-26T01:09:14.094Z,25.22
2019-06-26T01:11:41.877Z,25.18
2019-06-26T01:14:08.915Z,25.16
2019-06-26T01:16:35.921Z,25.12
2019-06-26T01:19:03.343Z,25.05
2019-06-26T01:21:30.306Z,25.00
2019-06-26T01:23:57.397Z,24.97
2019-06-26T01:26:24.374Z,24.95
2019-06-26T01:28:51.360Z,24.91
2019-06-26T01:31:18.334Z,24.88
2019-06-26T01:33:45.369Z,24.81
2019-06-26T01:36:12.383Z,24.72
2019-06-26T01:38:39.359Z,24.69
2019-06-26T01:41:06.404Z,24.68
2019-06-26T01:43:33.439Z,24.59
2019-06-26T01:46:00.546Z,24.52
2019-06-26T01:48:27.540Z,24.40
2019-06-26T01:50:54.554Z,24.19
2019-06-26T01:53:21.538Z,24.06
2019-06-26T01:55:51.494Z,24.05
2019-06-26T01:58:18.554Z,23.95
2019-06-26T02:00:45.527Z,23.58
2019-06-26T02:03:14.997Z,23.53
2019-06-26T02:05:42.018Z,23.42
2019-06-26T02:08:09.013Z,23.41
2019-06-26T02:10:36.142Z,23.32
2019-06-26T02:13:03.157Z,22.96
2019-06-26T02:15:30.143Z,22.99
2019-06-26T02:17:59.479Z,22.97
2019-06-26T02:20:26.501Z,22.74
2019-06-26T02:22:53.491Z,22.77
2019-06-26T02:25:22.910Z,22.72
2019-06-26T02:27:49.891Z,22.69
2019-06-26T02:30:17.572Z,22.78
2019-06-26T02:32:44.586Z,22.75
2019-06-26T02:35:11.551Z,22.60
2019-06-26T02:37:38.592Z,22.55
2019-06-26T02:40:06.211Z,22.55
2019-06-26T02:42:33.197Z,22.17
2019-06-26T02:45:00.308Z,22.19
2019-06-26T02:47:27.308Z,22.08
2019-06-26T02:49:54.281Z,22.20
2019-06-26T02:52:21.341Z,22.02
2019-06-26T02:54:48.300Z,21.83
2019-06-26T02:57:15.352Z,21.74
2019-06-26T02:59:42.348Z,21.70
2019-06-26T03:02:09.332Z,21.76
2019-06-26T03:04:38.001Z,21.60
2019-06-26T03:07:04.989Z,21.45
2019-06-26T03:09:35.880Z,21.38
2019-06-26T03:12:02.877Z,21.55
2019-06-26T03:14:29.885Z,21.41
2019-06-26T03:17:01.408Z,21.40
2019-06-26T03:19:28.412Z,21.53
2019-06-26T03:21:55.409Z,21.45
2019-06-26T03:24:22.387Z,21.42
2019-06-26T03:26:49.366Z,21.51
2019-06-26T03:29:16.365Z,21.44
2019-06-26T03:31:44.543Z,21.28
2019-06-26T03:34:11.512Z,21.40
2019-06-26T03:36:38.510Z,21.33
2019-06-26T03:39:06.517Z,21.23
2019-06-26T03:41:33.513Z,21.18
2019-06-26T03:44:00.524Z,21.24
2019-06-26T03:46:27.513Z,21.25
2019-06-26T03:48:54.468Z,21.12
2019-06-26T03:51:21.462Z,21.23
2019-06-26T03:53:51.408Z,21.23
2019-06-26T03:56:18.371Z,21.23
2019-06-26T03:58:45.345Z,21.21
2019-06-26T04:01:12.331Z,21.33
2019-06-26T04:03:39.358Z,21.09
2019-06-26T04:06:06.331Z,21.25
2019-06-26T04:08:33.373Z,21.27
2019-06-26T04:11:00.397Z,21.34
2019-06-26T04:13:27.402Z,21.45
2019-06-26T04:15:57.285Z,21.55
2019-06-26T04:18:24.388Z,21.59
2019-06-26T04:20:51.363Z,21.62
2019-06-26T04:23:20.681Z,21.68
2019-06-26T04:25:47.684Z,21.56
2019-06-26T04:28:14.651Z,21.76
2019-06-26T04:30:41.633Z,21.87
2019-06-26T04:33:08.602Z,22.01
2019-06-26T04:35:35.562Z,22.14
2019-06-26T04:38:05.515Z,22.26
2019-06-26T04:40:32.491Z,22.32
2019-06-26T04:43:00.659Z,22.54
2019-06-26T04:45:27.676Z,22.70
2019-06-26T04:50:22.419Z,22.86
2019-06-26T04:52:49.602Z,22.96
2019-06-26T04:55:16.689Z,23.09
2019-06-26T04:57:43.711Z,23.30
2019-06-26T05:00:14.206Z,23.44
2019-06-26T05:02:41.169Z,23.50
2019-06-26T05:05:08.364Z,23.66
2019-06-26T05:07:35.502Z,23.75
2019-06-26T05:10:03.474Z,23.83
2019-06-26T05:12:30.480Z,23.90
2019-06-26T05:14:57.537Z,23.84
2019-06-26T05:17:29.977Z,24.05
2019-06-26T05:19:57.005Z,24.05
2019-06-26T05:22:24.003Z,23.88
2019-06-26T05:24:51.033Z,23.95
2019-06-26T05:27:18.004Z,24.12
2019-06-26T05:29:44.957Z,24.19
2019-06-26T05:32:13.766Z,24.18
2019-06-26T05:34:40.792Z,23.85
2019-06-26T05:37:07.743Z,23.87
2019-06-26T05:39:34.738Z,24.02
2019-06-26T05:42:01.747Z,24.24
2019-06-26T05:44:28.697Z,24.44
2019-06-26T05:46:55.667Z,24.29
2019-06-26T05:49:22.664Z,24.15
2019-06-26T05:51:49.688Z,24.32
2019-06-26T05:54:16.810Z,24.31
2019-06-26T05:56:45.419Z,24.43
2019-06-26T05:59:17.945Z,24.33
2019-06-26T06:01:44.940Z,24.10
2019-06-26T06:04:11.942Z,23.93
2019-06-26T06:06:42.048Z,23.95
2019-06-26T06:09:07.906Z,24.11
2019-06-26T06:11:34.960Z,23.90
2019-06-26T06:14:01.936Z,23.89
2019-06-26T06:16:28.944Z,23.85
2019-06-26T06:18:55.928Z,23.31
2019-06-26T06:21:22.931Z,23.28
2019-06-26T06:23:49.949Z,22.97
2019-06-26T06:26:16.926Z,22.71
2019-06-26T06:28:43.894Z,22.66
2019-06-26T06:31:10.901Z,22.55
2019-06-26T06:33:37.955Z,22.57
2019-06-26T06:36:04.957Z,21.97
2019-06-26T06:38:36.478Z,22.25
2019-06-26T06:41:03.479Z,22.36
2019-06-26T06:43:30.549Z,22.16
2019-06-26T06:45:57.554Z,21.87
2019-06-26T06:48:24.625Z,21.58
2019-06-26T06:50:51.589Z,21.84
2019-06-26T06:53:18.638Z,21.46
2019-06-26T06:55:45.733Z,21.18
2019-06-26T06:58:12.727Z,21.33
2019-06-26T07:00:42.038Z,21.30
2019-06-26T07:03:09.003Z,21.23
2019-06-26T07:05:35.973Z,21.17
2019-06-26T07:08:03.006Z,20.80
2019-06-26T07:10:30.310Z,20.92
2019-06-26T07:12:57.344Z,20.77
2019-06-26T07:15:24.862Z,20.83
2019-06-26T07:17:52.275Z,20.85
2019-06-26T07:20:19.285Z,20.96
2019-06-26T07:22:50.007Z,20.59
2019-06-26T07:25:17.079Z,20.55
2019-06-26T07:27:44.192Z,20.49
2019-06-26T07:30:13.780Z,20.43
2019-06-26T07:32:40.769Z,20.30
2019-06-26T07:35:07.745Z,20.30
2019-06-26T07:37:34.766Z,20.40
2019-06-26T07:40:02.514Z,20.34
2019-06-26T07:42:29.698Z,20.21
2019-06-26T07:44:56.693Z,20.27
2019-06-26T07:47:41.544Z,20.17
2019-06-26T07:49:52.609Z,20.46
2019-06-26T07:52:19.639Z,20.46
2019-06-26T07:54:49.179Z,20.20
2019-06-26T07:57:16.183Z,20.23
2019-06-26T07:59:43.150Z,20.19
2019-06-26T08:02:12.406Z,20.05
2019-06-26T08:04:39.432Z,20.29
2019-06-26T08:07:06.464Z,20.16
2019-06-26T08:09:33.553Z,20.06
2019-06-26T08:12:00.528Z,20.28
2019-06-26T08:14:27.506Z,20.20
2019-06-26T08:16:54.505Z,20.16
2019-06-26T08:19:21.512Z,20.12
2019-06-26T08:21:48.502Z,20.04
2019-06-26T08:24:15.577Z,20.03
2019-06-26T08:26:42.568Z,19.92
2019-06-26T08:29:09.526Z,20.07
2019-06-26T08:31:40.077Z,20.01
2019-06-26T08:34:07.079Z,20.14
2019-06-26T08:36:34.063Z,20.25
2019-06-26T08:39:06.713Z,20.20
2019-06-26T08:41:33.736Z,20.23
2019-06-26T08:44:00.729Z,20.23
2019-06-26T08:46:27.742Z,20.20
2019-06-26T08:48:54.739Z,20.25
2019-06-26T08:51:21.737Z,20.26
2019-06-26T08:53:48.705Z,20.28
2019-06-26T08:56:15.677Z,20.27
2019-06-26T08:58:42.713Z,20.08
2019-06-26T09:01:09.662Z,20.10
2019-06-26T09:03:36.628Z,20.06
2019-06-26T09:06:03.661Z,20.02
2019-06-26T09:08:30.894Z,20.06
2019-06-26T09:10:57.882Z,20.24
2019-06-26T09:13:29.532Z,20.25
2019-06-26T09:15:56.567Z,20.32
2019-06-26T09:18:35.054Z,20.34
2019-06-26T09:20:52.457Z,20.25
2019-06-26T09:23:19.447Z,20.23
2019-06-26T09:25:46.417Z,20.23
2019-06-26T09:28:13.410Z,20.22
2019-06-26T09:30:43.239Z,19.95
2019-06-26T09:33:10.208Z,20.05
2019-06-26T09:35:37.218Z,20.11
2019-06-26T09:38:05.479Z,19.98
2019-06-26T09:40:32.490Z,20.13
2019-06-26T09:42:59.464Z,20.18
2019-06-26T09:45:26.422Z,20.09
2019-06-26T09:47:53.404Z,19.98
2019-06-26T09:50:20.400Z,20.05
2019-06-26T09:52:53.627Z,19.98
2019-06-26T09:55:20.624Z,20.10
2019-06-26T09:57:47.769Z,20.32
2019-06-26T10:00:18.262Z,20.20
2019-06-26T10:02:45.268Z,20.12
2019-06-26T10:05:12.662Z,19.99
2019-06-26T10:07:39.646Z,19.92
2019-06-26T10:10:06.707Z,19.93
2019-06-26T10:12:33.661Z,19.95
2019-06-26T10:15:00.655Z,20.04
2019-06-26T10:17:27.676Z,20.00
2019-06-26T10:19:54.630Z,19.83
2019-06-26T10:22:21.656Z,19.87
2019-06-26T10:24:50.906Z,19.65
2019-06-26T10:27:17.865Z,19.82
2019-06-26T10:29:44.897Z,19.80
2019-06-26T10:32:20.591Z,19.90
2019-06-26T10:34:47.800Z,19.77
2019-06-26T10:37:14.809Z,19.74
2019-06-26T10:39:41.816Z,19.63
2019-06-26T10:42:08.819Z,19.98
2019-06-26T10:44:35.812Z,19.92
2019-06-26T10:47:02.801Z,19.86
2019-06-26T10:49:29.815Z,20.07
2019-06-26T10:51:56.854Z,20.25
2019-06-26T10:54:23.798Z,20.28
2019-06-26T10:56:50.772Z,20.20
2019-06-26T10:59:17.736Z,20.22
2019-06-26T11:01:44.802Z,20.26
2019-06-26T11:04:11.809Z,20.39
2019-06-26T11:06:38.806Z,20.23
2019-06-26T11:09:06.668Z,20.24
2019-06-26T11:11:33.625Z,20.47
2019-06-26T11:14:02.892Z,20.42
2019-06-26T11:16:29.864Z,20.47
2019-06-26T11:18:56.842Z,20.42
2019-06-26T11:21:23.814Z,20.39
2019-06-26T11:23:54.253Z,20.45
2019-06-26T11:26:21.232Z,20.60
2019-06-26T11:28:48.222Z,20.28
2019-06-26T11:31:16.923Z,20.15
2019-06-26T11:33:43.923Z,20.38
2019-06-26T11:36:10.945Z,20.28
2019-06-26T11:38:40.156Z,20.36
2019-06-26T11:41:07.153Z,20.46
2019-06-26T11:43:34.213Z,20.55
2019-06-26T11:46:04.073Z,20.61
2019-06-26T11:48:31.083Z,20.71
2019-06-26T11:50:58.089Z,20.38
2019-06-26T11:53:25.130Z,20.60
2019-06-26T11:55:52.185Z,20.58
2019-06-26T11:58:19.356Z,20.48
2019-06-26T12:00:46.328Z,20.46
2019-06-26T12:03:13.512Z,20.35
2019-06-26T12:05:40.529Z,20.56
2019-06-26T12:08:07.645Z,20.61
2019-06-26T12:10:34.900Z,20.38
2019-06-26T12:13:04.245Z,20.53
2019-06-26T12:15:30.915Z,20.61
2019-06-26T12:17:57.903Z,20.61
2019-06-26T12:20:25.219Z,20.51
2019-06-26T12:22:52.588Z,20.41
2019-06-26T12:25:19.626Z,20.67
2019-06-26T12:27:46.597Z,20.69
2019-06-26T12:30:17.240Z,20.62
2019-06-26T12:33:01.491Z,20.78
2019-06-26T12:35:13.360Z,20.92
2019-06-26T12:37:40.361Z,20.92
2019-06-26T12:40:07.830Z,21.00
2019-06-26T12:42:34.835Z,20.94
2019-06-26T12:45:01.852Z,21.08
2019-06-26T12:47:28.848Z,20.68
2019-06-26T12:49:55.828Z,20.81
2019-06-26T12:52:22.853Z,20.80
2019-06-26T12:54:49.803Z,20.63
2019-06-26T12:57:20.871Z,20.77
2019-06-26T12:59:57.390Z,20.71
2019-06-26T13:02:18.813Z,20.88
2019-06-26T13:04:45.916Z,21.04
2019-06-26T13:07:12.855Z,21.11
2019-06-26T13:09:39.895Z,20.96
2019-06-26T13:12:06.915Z,21.01
2019-06-26T13:14:33.899Z,21.22
2019-06-26T13:17:01.015Z,21.06
2019-06-26T13:19:28.016Z,20.90
2019-06-26T13:21:54.998Z,21.02
2019-06-26T13:24:22.040Z,20.97
2019-06-26T13:26:49.012Z,21.10
2019-06-26T13:29:16.030Z,21.17
2019-06-26T13:31:46.245Z,21.08
2019-06-26T13:34:14.552Z,21.25
2019-06-26T13:36:41.576Z,21.25
2019-06-26T13:39:08.566Z,21.22
2019-06-26T13:41:37.320Z,20.95
2019-06-26T13:44:04.314Z,20.81
2019-06-26T13:46:31.284Z,21.01
2019-06-26T13:49:02.147Z,20.87
2019-06-26T13:51:29.182Z,20.78
2019-06-26T13:53:56.297Z,20.60
2019-06-26T13:56:25.634Z,20.89
2019-06-26T13:58:52.690Z,20.90
2019-06-26T14:01:22.919Z,21.10
2019-06-26T14:03:48.688Z,21.10
2019-06-26T14:06:15.696Z,21.13
2019-06-26T14:08:42.673Z,21.04
2019-06-26T14:11:10.877Z,21.10
2019-06-26T14:13:41.541Z,20.95
2019-06-26T14:16:06.763Z,20.88
2019-06-26T14:18:33.739Z,20.98
2019-06-26T14:21:00.781Z,20.88
2019-06-26T14:23:28.967Z,21.14
2019-06-26T14:25:55.901Z,20.83
2019-06-26T14:28:24.602Z,20.69
2019-06-26T14:30:51.575Z,20.89
2019-06-26T14:33:18.586Z,20.64
2019-06-26T14:35:45.577Z,20.35
2019-06-26T14:38:12.576Z,20.46
2019-06-26T14:40:39.612Z,20.64
2019-06-26T14:43:10.215Z,20.67
2019-06-26T14:45:37.207Z,20.74
2019-06-26T14:48:04.213Z,20.50
2019-06-26T14:50:31.189Z,20.72
2019-06-26T14:52:58.165Z,20.67
2019-06-26T14:55:25.202Z,20.61
2019-06-26T14:57:52.179Z,20.67
2019-06-26T15:00:19.273Z,20.70
2019-06-26T15:02:46.268Z,20.57
2019-06-26T15:05:13.278Z,20.45
2019-06-26T15:07:40.244Z,20.34
2019-06-26T15:10:07.805Z,20.20
2019-06-26T15:12:34.839Z,20.19
2019-06-26T15:15:01.945Z,20.12
2019-06-26T15:17:28.976Z,20.25
2019-06-26T15:19:59.093Z,20.30
2019-06-26T15:22:26.076Z,20.01
2019-06-26T15:24:53.097Z,20.05
2019-06-26T15:27:20.107Z,20.23
2019-06-26T15:29:47.086Z,20.13
2019-06-26T15:32:14.114Z,20.17
2019-06-26T15:34:41.087Z,20.05
2019-06-26T15:37:08.054Z,20.12
2019-06-26T15:39:35.055Z,20.10
2019-06-26T15:42:02.057Z,19.81
2019-06-26T15:44:29.052Z,19.83
2019-06-26T15:46:56.111Z,19.62
2019-06-26T15:49:23.208Z,19.85
2019-06-26T15:51:50.201Z,19.85
2019-06-26T15:54:17.190Z,19.65
2019-06-26T15:56:44.200Z,19.62
2019-06-26T15:59:11.164Z,19.40
2019-06-26T16:01:38.152Z,19.38
2019-06-26T16:04:09.788Z,19.20
2019-06-26T16:06:36.818Z,19.37
2019-06-26T16:09:05.045Z,19.27
2019-06-26T16:11:32.125Z,19.28
2019-06-26T16:13:59.135Z,19.08
2019-06-26T16:16:26.179Z,19.14
2019-06-26T16:18:58.955Z,19.17
2019-06-26T16:21:25.943Z,19.20
2019-06-26T16:23:52.934Z,19.16
2019-06-26T16:26:19.958Z,19.12
2019-06-26T16:28:48.149Z,19.06
2019-06-26T16:31:15.207Z,18.91
2019-06-26T16:33:42.183Z,18.90
2019-06-26T16:36:09.158Z,18.84
2019-06-26T16:38:36.148Z,18.81
2019-06-26T16:41:03.249Z,18.82
2019-06-26T16:43:30.234Z,18.87
2019-06-26T16:45:57.460Z,18.93
2019-06-26T16:48:24.496Z,19.00
2019-06-26T16:50:51.486Z,18.98
2019-06-26T16:53:18.508Z,19.00
2019-06-26T16:55:45.499Z,18.84
2019-06-26T16:58:13.753Z,18.93
2019-06-26T17:00:40.759Z,18.60
2019-06-26T17:03:07.739Z,18.67
2019-06-26T17:05:34.734Z,18.78
2019-06-26T17:08:01.775Z,18.67
2019-06-26T17:10:28.798Z,18.54
2019-06-26T17:12:55.778Z,18.56
2019-06-26T17:15:22.750Z,18.85
2019-06-26T17:17:49.760Z,18.59
2019-06-26T17:20:17.055Z,18.36
2019-06-26T17:22:44.038Z,18.47
2019-06-26T17:25:11.203Z,18.30
2019-06-26T17:27:38.245Z,18.33
2019-06-26T17:30:05.467Z,18.41
2019-06-26T17:32:32.431Z,18.42
2019-06-26T17:34:59.523Z,18.41
2019-06-26T17:37:26.546Z,18.30
2019-06-26T17:39:53.530Z,18.14
2019-06-26T17:42:20.603Z,18.06
2019-06-26T17:44:47.592Z,18.17
2019-06-26T17:47:14.581Z,18.21
2019-06-26T17:49:45.526Z,18.33
2019-06-26T17:52:12.501Z,18.05
2019-06-26T17:54:39.493Z,17.94
2019-06-26T17:57:06.507Z,17.93
2019-06-26T17:59:33.518Z,18.03
2019-06-26T18:02:00.516Z,18.03
2019-06-26T18:04:27.534Z,17.99
2019-06-26T18:06:54.606Z,17.97
2019-06-26T18:09:21.616Z,18.09
2019-06-26T18:11:48.640Z,18.12
2019-06-26T18:14:15.686Z,18.15
2019-06-26T18:16:47.126Z,17.94
2019-06-26T18:19:14.145Z,18.12
2019-06-26T18:21:41.134Z,18.05
2019-06-26T18:24:10.765Z,17.99
2019-06-26T18:26:37.746Z,18.07
2019-06-26T18:29:04.763Z,18.11
2019-06-26T18:31:31.765Z,18.06
2019-06-26T18:33:58.756Z,18.06
2019-06-26T18:36:26.976Z,18.12
2019-06-26T18:38:53.966Z,18.28
2019-06-26T18:41:23.640Z,18.06
2019-06-26T18:43:51.012Z,18.14
2019-06-26T18:46:18.013Z,18.05
2019-06-26T18:48:45.146Z,18.13
2019-06-26T18:51:14.618Z,17.91
2019-06-26T18:53:53.128Z,17.98
2019-06-26T18:56:10.500Z,18.00
2019-06-26T18:58:41.189Z,18.15
2019-06-26T19:01:08.187Z,18.30
2019-06-26T19:03:35.232Z,18.40
2019-06-26T19:06:02.323Z,18.15
2019-06-26T19:08:29.299Z,18.09
2019-06-26T19:10:56.317Z,17.88
2019-06-26T19:13:23.366Z,17.84
2019-06-26T19:15:50.321Z,17.99
2019-06-26T19:18:17.319Z,17.71
2019-06-26T19:20:44.343Z,17.60
2019-06-26T19:23:11.306Z,17.60
2019-06-26T19:25:38.284Z,17.52
2019-06-26T19:28:05.294Z,17.44
2019-06-26T19:30:32.245Z,17.48
2019-06-26T19:32:59.195Z,17.44
2019-06-26T19:35:26.213Z,17.40
2019-06-26T19:37:53.206Z,17.46
2019-06-26T19:40:23.779Z,17.55
2019-06-26T19:42:49.387Z,17.38
2019-06-26T19:45:16.769Z,17.24
2019-06-26T19:47:43.730Z,17.09
2019-06-26T19:50:11.829Z,17.11
2019-06-26T19:52:38.795Z,17.18
2019-06-26T19:55:06.032Z,17.46
2019-06-26T19:57:35.841Z,17.23
2019-06-26T20:00:03.424Z,17.34
2019-06-26T20:02:30.522Z,17.18
2019-06-26T20:04:59.860Z,17.24
2019-06-26T20:07:26.895Z,17.46
2019-06-26T20:09:53.894Z,17.31
2019-06-26T20:12:21.014Z,17.01
2019-06-26T20:14:48.034Z,16.96
2019-06-26T20:17:15.023Z,16.90
2019-06-26T20:19:45.040Z,16.91
2019-06-26T20:22:12.130Z,16.96
2019-06-26T20:24:44.187Z,17.01
2019-06-26T20:27:07.996Z,17.15
2019-06-26T20:29:35.061Z,17.23
2019-06-26T20:32:02.023Z,17.14
2019-06-26T20:34:29.283Z,17.10
2019-06-26T20:36:56.414Z,17.04
2019-06-26T20:39:23.417Z,16.84
2019-06-26T20:41:52.726Z,16.80
2019-06-26T20:44:19.667Z,16.77
2019-06-26T20:46:46.701Z,16.89
2019-06-26T20:49:13.668Z,16.76
2019-06-26T20:51:40.628Z,16.85
2019-06-26T20:54:07.618Z,16.78
2019-06-26T20:56:37.673Z,16.82
2019-06-26T20:59:04.694Z,16.70
2019-06-26T21:01:31.653Z,16.83
2019-06-26T21:03:58.634Z,16.80
2019-06-26T21:06:25.650Z,16.80
2019-06-26T21:08:52.617Z,16.67
2019-06-26T21:11:19.666Z,16.67
2019-06-26T21:13:46.643Z,16.61
2019-06-26T21:16:13.620Z,16.89
2019-06-26T21:18:40.698Z,16.89
2019-06-26T21:21:09.953Z,16.99
2019-06-26T21:23:36.956Z,17.01
2019-06-26T21:26:03.967Z,16.87
2019-06-26T21:28:32.163Z,16.67
2019-06-26T21:30:59.177Z,16.69
2019-06-26T21:33:26.119Z,16.72
2019-06-26T21:35:55.424Z,16.61
2019-06-26T21:38:22.419Z,16.74
2019-06-26T21:40:49.375Z,16.69
2019-06-26T21:43:16.412Z,16.58
2019-06-26T21:45:43.384Z,16.51
2019-06-26T21:48:10.352Z,16.47
2019-06-26T21:50:39.660Z,16.49
2019-06-26T21:53:06.648Z,16.42
2019-06-26T21:55:35.067Z,16.49
2019-06-26T21:58:02.545Z,16.60
2019-06-26T22:00:36.131Z,16.55
2019-06-26T22:03:03.263Z,16.59
2019-06-26T22:05:30.255Z,16.68
2019-06-26T22:07:57.262Z,16.79
2019-06-26T22:10:24.455Z,16.78
2019-06-26T22:12:51.497Z,16.74
2019-06-26T22:15:18.524Z,16.62
2019-06-26T22:17:45.501Z,16.66
2019-06-26T22:20:14.723Z,16.47
2019-06-26T22:22:41.719Z,16.26
2019-06-26T22:25:08.992Z,16.40
2019-06-26T22:27:36.032Z,16.39
2019-06-26T22:30:03.783Z,16.48
2019-06-26T22:32:30.746Z,16.57
2019-06-26T22:34:57.761Z,16.41
2019-06-26T22:37:24.843Z,16.35
2019-06-26T22:39:51.844Z,16.38
2019-06-26T22:42:18.811Z,16.38
2019-06-26T22:44:47.031Z,16.36
2019-06-26T22:47:13.989Z,16.50
2019-06-26T22:49:40.945Z,16.42
2019-06-26T22:52:07.912Z,16.50
2019-06-26T22:54:34.934Z,16.57
2019-06-26T22:57:01.912Z,16.63
2019-06-26T22:59:30.608Z,16.33
2019-06-26T23:01:58.000Z,16.29
2019-06-26T23:04:24.976Z,16.16
2019-06-26T23:06:52.017Z,16.10
2019-06-26T23:09:18.990Z,16.24
2019-06-26T23:11:46.007Z,16.36
2019-06-26T23:14:14.829Z,16.32
2019-06-26T23:16:41.809Z,16.36
2019-06-26T23:19:08.783Z,16.32
2019-06-26T23:21:36.891Z,16.37
2019-06-26T23:24:03.911Z,16.34
2019-06-26T23:26:30.901Z,16.47
2019-06-26T23:28:57.923Z,16.14
2019-06-26T23:31:25.077Z,16.05
2019-06-26T23:33:52.127Z,16.21
2019-06-26T23:36:22.318Z,16.06
2019-06-26T23:38:49.294Z,16.05
2019-06-26T23:41:18.094Z,16.25
2019-06-26T23:43:45.147Z,16.25
2019-06-26T23:46:12.111Z,16.17
2019-06-26T23:48:39.125Z,16.31
2019-06-26T23:51:06.092Z,16.12
2019-06-26T23:53:33.055Z,16.19
2019-06-26T23:56:00.070Z,15.90
2019-06-26T23:58:28.155Z,16.03
